Capitol Logistics 223


KSEA
Seattle-Tacoma International Airport
Seattle, Washington, US
KRIV
March Air Reserve Base
Riverside, California, US

Activity Log

Date Flight Route Aircraft Duration
No Flights Yet

Route Details

Aircraft Information
Primary: Boeing 767-300BDSF
Backup: Not Available
Route Data
Distance: 833nm
Sched. Duration: 2h 10m
Avg. Duration: 0h 00m (-211m)
Times Flown: 0
Recm'd Route: SUMMA1 SUMMA JINMO Q7 JAGWA LANDO PMD MARCH4
Planned Altitude: 35,000ft
Origin Wx: KSEA 250953Z 05007KT 10SM CLR 04/M05 A3046 RMK AO2 SLP324 T00391050 $
Dest. Wx: KRIV 250958Z 32003KT 10SM SCT010 BKN022 15/13 A2995 RMK AO2A SLP134 T01540127
Notes:

Financial History
Total Freight: 0lbs
Average Load: 0lbs/flt
Fuel Used: 0lbs
Avg. Fuel Used: 0lbs/flt
Fuel Expense: $0
Avg. Fuel Expense: $0
Avg. Fuel Cost: $0/lbs
Total Gross Income: $0
Pilot Pay: $0
Total Expenses: $0
Total Revenue: $0
Average Revenue: $0